Time;durP1;ratioP1;P1;durP2;ratioP2;P2;SDS_P1;SDS_P2;PMS_P1;PMS_P2;Temp;Humidity;BMP_temperature;BMP_pressure;BME280_temperature;BME280_humidity;BME280_pressure;Samples;Min_cycle;Max_cycle;Signal;HPM_P1;HPM_P2
2022/11/30 00:00:13;;;;;;;77.07;38.60;;;4.40;99.90;;;;;;5027019;28;20378;-77
2022/11/30 00:02:41;;;;;;;79.37;37.40;;;4.40;99.90;;;;;;5027022;28;21015;-77
2022/11/30 00:05:09;;;;;;;76.17;37.20;;;4.40;99.90;;;;;;5024256;28;20243;-76
2022/11/30 00:07:36;;;;;;;73.90;38.57;;;4.40;99.90;;;;;;5025164;28;20947;-77
2022/11/30 00:10:03;;;;;;;75.37;38.37;;;4.50;99.90;;;;;;5024830;28;20854;-77
2022/11/30 00:12:30;;;;;;;72.37;38.07;;;4.40;99.90;;;;;;5037997;28;20240;-77
2022/11/30 00:14:57;;;;;;;75.07;37.23;;;4.40;99.90;;;;;;5029922;28;20240;-77
2022/11/30 00:17:24;;;;;;;71.47;37.23;;;4.40;99.90;;;;;;5031914;28;22279;-76
2022/11/30 00:19:54;;;;;;;79.53;37.50;;;4.40;99.90;;;;;;5026561;28;20229;-77
2022/11/30 00:22:23;;;;;;;80.40;38.50;;;4.40;99.90;;;;;;5030977;28;20216;-77
2022/11/30 00:24:50;;;;;;;74.20;37.70;;;4.40;99.90;;;;;;5045873;28;20237;-77
2022/11/30 00:27:17;;;;;;;73.80;37.30;;;4.40;99.90;;;;;;5029469;28;20374;-76
2022/11/30 00:29:43;;;;;;;75.93;37.87;;;4.40;99.90;;;;;;5034834;28;20259;-76
2022/11/30 00:32:10;;;;;;;75.53;37.87;;;4.40;99.90;;;;;;5032227;28;20229;-77
2022/11/30 00:34:37;;;;;;;79.87;38.70;;;4.40;99.90;;;;;;5039347;28;20228;-76
2022/11/30 00:37:05;;;;;;;82.67;38.43;;;4.40;99.90;;;;;;5027991;28;20234;-77
2022/11/30 00:39:31;;;;;;;69.80;35.30;;;4.40;99.90;;;;;;5032584;28;20307;-76
2022/11/30 00:41:58;;;;;;;73.33;38.10;;;4.40;99.90;;;;;;5012772;28;20220;-77
2022/11/30 00:44:25;;;;;;;76.47;38.03;;;4.40;99.90;;;;;;5019500;28;20229;-75
2022/11/30 00:46:54;;;;;;;78.53;39.07;;;4.50;99.90;;;;;;5018004;28;20794;-76
2022/11/30 00:49:21;;;;;;;77.33;38.40;;;4.40;99.90;;;;;;5016669;28;20447;-76
2022/11/30 00:51:48;;;;;;;73.37;37.83;;;4.40;99.90;;;;;;5022568;28;20232;-76
2022/11/30 00:54:16;;;;;;;78.63;38.73;;;4.40;99.90;;;;;;5027051;28;20250;-76
2022/11/30 00:56:43;;;;;;;74.30;37.63;;;4.40;99.90;;;;;;5018503;28;20473;-76
2022/11/30 00:59:12;;;;;;;77.00;39.33;;;4.40;99.90;;;;;;5022079;28;20218;-76
2022/11/30 01:01:39;;;;;;;75.97;40.67;;;4.40;99.90;;;;;;5013619;28;20244;-76
2022/11/30 01:04:06;;;;;;;74.90;38.93;;;4.40;99.90;;;;;;5029248;28;20230;-76
2022/11/30 01:06:33;;;;;;;76.10;39.97;;;4.40;99.90;;;;;;5036719;28;20233;-76
2022/11/30 01:09:01;;;;;;;77.57;40.20;;;4.40;99.90;;;;;;5025995;28;20342;-76
2022/11/30 01:11:30;;;;;;;77.53;39.93;;;4.40;99.90;;;;;;5019903;28;20303;-75
2022/11/30 01:13:58;;;;;;;78.37;40.07;;;4.40;99.90;;;;;;5023438;28;20217;-77
2022/11/30 01:16:27;;;;;;;81.57;39.83;;;4.40;99.90;;;;;;5029019;28;20241;-76
2022/11/30 01:18:54;;;;;;;76.73;38.00;;;4.40;99.90;;;;;;5023647;28;20232;-76
2022/11/30 01:21:23;;;;;;;74.13;39.43;;;4.40;99.90;;;;;;5023194;28;20220;-76
2022/11/30 01:23:50;;;;;;;82.40;40.03;;;4.40;99.90;;;;;;5036519;28;20236;-76
2022/11/30 01:26:17;;;;;;;78.13;39.53;;;4.40;99.90;;;;;;5022870;28;20225;-76
2022/11/30 01:28:49;;;;;;;73.70;37.30;;;4.40;99.90;;;;;;5040618;28;20232;-76
2022/11/30 01:31:19;;;;;;;78.00;39.93;;;4.40;99.90;;;;;;5033544;28;20704;-76
2022/11/30 01:33:50;;;;;;;78.47;39.97;;;4.40;99.90;;;;;;5033278;28;20230;-76
2022/11/30 01:36:18;;;;;;;74.20;38.13;;;4.40;99.90;;;;;;5025100;28;20230;-76
2022/11/30 01:38:47;;;;;;;74.07;39.23;;;4.30;99.90;;;;;;5035205;28;21067;-77
2022/11/30 01:41:17;;;;;;;77.10;39.23;;;4.30;99.90;;;;;;5025689;28;21005;-77
2022/11/30 01:43:48;;;;;;;75.97;40.33;;;4.30;99.90;;;;;;5033263;28;20261;-76
2022/11/30 01:46:24;;;;;;;81.07;38.73;;;4.30;99.90;;;;;;5037830;28;20224;-76
2022/11/30 01:48:57;;;;;;;79.27;40.17;;;4.30;99.90;;;;;;5034018;28;20251;-76
2022/11/30 01:51:26;;;;;;;80.43;40.53;;;4.30;99.90;;;;;;5037507;28;20251;-76
2022/11/30 01:53:53;;;;;;;81.33;39.53;;;4.30;99.90;;;;;;5035885;28;20221;-76
2022/11/30 01:56:20;;;;;;;80.13;39.73;;;4.30;99.90;;;;;;5034351;28;20216;-76
2022/11/30 01:58:49;;;;;;;78.77;39.23;;;4.30;99.90;;;;;;5026225;28;20287;-76
2022/11/30 02:01:16;;;;;;;74.50;40.03;;;4.30;99.90;;;;;;5015288;28;20245;-77
2022/11/30 02:03:49;;;;;;;77.30;39.30;;;4.30;99.90;;;;;;5024058;28;20230;-77
2022/11/30 02:06:17;;;;;;;81.03;39.07;;;4.20;99.90;;;;;;5032783;28;20223;-77
2022/11/30 02:08:44;;;;;;;80.70;39.50;;;4.30;99.90;;;;;;5026065;28;20232;-77
2022/11/30 02:11:14;;;;;;;76.80;39.00;;;4.30;99.90;;;;;;5026263;28;20225;-77
2022/11/30 02:13:52;;;;;;;76.80;40.03;;;4.30;99.90;;;;;;5027737;28;20243;-77
2022/11/30 02:16:27;;;;;;;77.00;39.20;;;4.30;99.90;;;;;;5022846;28;20766;-77
2022/11/30 02:19:05;;;;;;;78.73;38.30;;;4.30;99.90;;;;;;5019827;28;20266;-78
2022/11/30 02:21:38;;;;;;;76.60;39.50;;;4.30;99.90;;;;;;5028752;28;20221;-77
2022/11/30 02:24:33;;;;;;;71.13;38.10;;;4.30;99.90;;;;;;5018899;28;20240;-77
2022/11/30 02:27:18;;;;;;;78.00;39.20;;;4.30;99.90;;;;;;5008557;28;20234;-77
2022/11/30 02:29:49;;;;;;;71.67;37.23;;;4.30;99.90;;;;;;5015786;28;20619;-76
2022/11/30 02:32:22;;;;;;;79.60;40.20;;;4.30;99.90;;;;;;5026153;28;20241;-77
2022/11/30 02:34:51;;;;;;;78.03;40.93;;;4.30;99.90;;;;;;5024120;28;20247;-76
2022/11/30 02:37:19;;;;;;;70.17;38.87;;;4.40;99.90;;;;;;5023046;28;20305;-76
2022/11/30 02:39:46;;;;;;;77.60;39.10;;;4.30;99.90;;;;;;5024663;28;20241;-75
2022/11/30 02:42:14;;;;;;;75.03;38.70;;;4.30;99.90;;;;;;5023866;28;20232;-75
2022/11/30 02:44:42;;;;;;;77.47;40.23;;;4.30;99.90;;;;;;5022897;28;20234;-76
2022/11/30 02:47:18;;;;;;;76.47;39.50;;;4.30;99.90;;;;;;5024134;28;20228;-76
2022/11/30 02:49:51;;;;;;;77.07;38.83;;;4.30;99.90;;;;;;5020597;28;20253;-76
2022/11/30 02:52:22;;;;;;;76.60;38.10;;;4.30;99.90;;;;;;5023086;28;20218;-76
2022/11/30 02:54:49;;;;;;;84.27;39.30;;;4.30;99.90;;;;;;5016455;28;20229;-76
2022/11/30 02:57:15;;;;;;;83.53;40.67;;;4.40;99.90;;;;;;5030517;28;20239;-76
2022/11/30 02:59:42;;;;;;;75.87;39.60;;;4.30;99.90;;;;;;5017539;28;20231;-76
2022/11/30 03:02:09;;;;;;;79.67;40.30;;;4.30;99.90;;;;;;5024125;28;20222;-76
2022/11/30 03:04:37;;;;;;;80.23;39.60;;;4.30;99.90;;;;;;5020215;28;20237;-77
2022/11/30 03:07:03;;;;;;;83.67;39.50;;;4.30;99.90;;;;;;5024575;28;20308;-76
2022/11/30 03:09:33;;;;;;;75.10;37.90;;;4.30;99.90;;;;;;5020792;28;20256;-77
2022/11/30 03:12:00;;;;;;;79.97;40.83;;;4.30;99.90;;;;;;5026224;28;20225;-77
2022/11/30 03:14:27;;;;;;;77.23;40.33;;;4.30;99.90;;;;;;5024510;28;20251;-77
2022/11/30 03:16:54;;;;;;;83.80;39.27;;;4.30;99.90;;;;;;5028687;28;20244;-77
2022/11/30 03:19:21;;;;;;;86.67;42.90;;;4.40;99.90;;;;;;5027185;28;20221;-77
2022/11/30 03:21:50;;;;;;;80.07;41.13;;;4.30;99.90;;;;;;5025781;28;20304;-76
2022/11/30 03:24:17;;;;;;;79.27;41.13;;;4.30;99.90;;;;;;5030536;28;20229;-76
2022/11/30 03:26:44;;;;;;;79.27;41.10;;;4.40;99.90;;;;;;5030856;28;20230;-76
2022/11/30 03:29:10;;;;;;;84.40;40.20;;;4.30;99.90;;;;;;5036431;28;20273;-77
2022/11/30 03:31:37;;;;;;;81.40;39.80;;;4.30;99.90;;;;;;5043562;28;20243;-76
2022/11/30 03:34:04;;;;;;;85.73;41.53;;;4.30;99.90;;;;;;5030699;28;20236;-76
2022/11/30 03:36:30;;;;;;;90.80;40.87;;;4.30;99.90;;;;;;5031245;28;20227;-76
2022/11/30 03:38:58;;;;;;;80.27;40.17;;;4.30;99.90;;;;;;5019830;28;20240;-76
2022/11/30 03:41:25;;;;;;;89.73;41.50;;;4.30;99.90;;;;;;5022911;28;20218;-77
2022/11/30 03:43:53;;;;;;;86.63;40.60;;;4.30;99.90;;;;;;5035642;28;20233;-76
2022/11/30 03:46:20;;;;;;;83.47;40.40;;;4.30;99.90;;;;;;5034981;28;20221;-76
2022/11/30 03:48:47;;;;;;;83.93;39.50;;;4.30;99.90;;;;;;5027580;28;20232;-76
2022/11/30 03:51:14;;;;;;;92.43;40.87;;;4.40;99.90;;;;;;5032912;28;20221;-76
2022/11/30 03:53:41;;;;;;;79.73;39.17;;;4.30;99.90;;;;;;5034710;28;20251;-77
2022/11/30 03:56:11;;;;;;;81.57;39.67;;;4.30;99.90;;;;;;5029464;28;20239;-76
2022/11/30 03:58:38;;;;;;;87.50;40.10;;;4.30;99.90;;;;;;5031646;28;20297;-76
2022/11/30 04:01:08;;;;;;;79.07;39.10;;;4.30;99.90;;;;;;5020342;28;20433;-76
2022/11/30 04:03:36;;;;;;;80.23;39.00;;;4.40;99.90;;;;;;5022257;28;20339;-77
2022/11/30 04:06:04;;;;;;;84.03;40.53;;;4.40;99.90;;;;;;5021749;28;20221;-76
2022/11/30 04:08:31;;;;;;;86.53;41.27;;;4.30;99.90;;;;;;4994343;28;20233;-76
2022/11/30 04:10:59;;;;;;;90.93;40.50;;;4.30;99.90;;;;;;4996583;28;20224;-76
2022/11/30 04:13:28;;;;;;;86.87;39.67;;;4.30;99.90;;;;;;4989551;28;20804;-77
2022/11/30 04:15:55;;;;;;;86.73;41.13;;;4.30;99.90;;;;;;5014124;28;20226;-77
2022/11/30 04:18:26;;;;;;;85.13;40.63;;;4.30;99.90;;;;;;5005215;28;20304;-76
2022/11/30 04:20:54;;;;;;;89.93;41.23;;;4.20;99.90;;;;;;5011611;28;20292;-76
2022/11/30 04:23:22;;;;;;;87.20;39.83;;;4.20;99.90;;;;;;5008718;28;20249;-77
2022/11/30 04:25:49;;;;;;;87.87;40.70;;;4.30;99.90;;;;;;5008994;28;20225;-76
2022/11/30 04:28:17;;;;;;;83.67;39.10;;;4.30;99.90;;;;;;4997179;28;20686;-77
2022/11/30 04:30:46;;;;;;;84.57;39.00;;;4.20;99.90;;;;;;5015551;28;20242;-76
2022/11/30 04:33:14;;;;;;;89.67;38.97;;;4.30;99.90;;;;;;5036742;28;20279;-76
2022/11/30 04:35:43;;;;;;;86.73;39.23;;;4.30;99.90;;;;;;5028781;28;20291;-75
2022/11/30 04:38:10;;;;;;;81.60;38.87;;;4.30;99.90;;;;;;5033836;28;20910;-76
2022/11/30 04:40:39;;;;;;;90.37;40.47;;;4.30;99.90;;;;;;5030711;28;20914;-77
2022/11/30 04:43:06;;;;;;;79.93;38.63;;;4.30;99.90;;;;;;5043420;28;20224;-77
2022/11/30 04:45:33;;;;;;;81.97;39.23;;;4.30;99.90;;;;;;5030600;28;20243;-76
2022/11/30 04:48:01;;;;;;;82.70;37.83;;;4.30;99.90;;;;;;5043243;28;20222;-76
2022/11/30 04:50:28;;;;;;;89.97;41.50;;;4.30;99.90;;;;;;5042527;28;20248;-76
2022/11/30 04:52:55;;;;;;;83.97;38.37;;;4.20;99.90;;;;;;5025098;28;20232;-76
2022/11/30 04:55:21;;;;;;;89.50;41.10;;;4.20;99.90;;;;;;5025617;28;20311;-75
2022/11/30 04:57:48;;;;;;;87.23;39.47;;;4.20;99.90;;;;;;5036886;28;20221;-76
2022/11/30 05:00:17;;;;;;;82.60;39.23;;;4.20;99.90;;;;;;5032278;28;20238;-76
2022/11/30 05:02:45;;;;;;;88.57;41.60;;;4.30;99.90;;;;;;5027576;28;20316;-77
2022/11/30 05:05:13;;;;;;;93.77;41.27;;;4.20;99.90;;;;;;5032170;28;20233;-75
2022/11/30 05:07:40;;;;;;;89.73;40.07;;;4.30;99.90;;;;;;5035851;28;20244;-76
2022/11/30 05:10:08;;;;;;;93.57;40.13;;;4.30;99.90;;;;;;5031213;28;20217;-75
2022/11/30 05:12:35;;;;;;;84.90;40.33;;;4.30;99.90;;;;;;5037890;28;20313;-76
2022/11/30 05:15:02;;;;;;;86.67;38.83;;;4.20;99.90;;;;;;5039589;28;20279;-76
2022/11/30 05:17:29;;;;;;;86.43;40.00;;;4.30;99.90;;;;;;5025809;28;20221;-76
2022/11/30 05:19:56;;;;;;;91.17;41.03;;;4.30;99.90;;;;;;5034886;28;20287;-76
2022/11/30 05:22:24;;;;;;;92.87;40.63;;;4.20;99.90;;;;;;5020738;28;20313;-78
2022/11/30 05:24:50;;;;;;;98.10;41.87;;;4.20;99.90;;;;;;4997069;28;20312;-80
2022/11/30 05:27:17;;;;;;;99.33;41.33;;;4.20;99.90;;;;;;4999889;28;20229;-78
2022/11/30 05:29:44;;;;;;;94.30;42.60;;;4.20;99.90;;;;;;5002506;28;20722;-79
2022/11/30 05:32:10;;;;;;;119.30;44.90;;;4.20;99.90;;;;;;5003122;28;20700;-80
2022/11/30 05:34:37;;;;;;;104.13;42.70;;;4.20;99.90;;;;;;5002526;28;20273;-78
2022/11/30 05:37:04;;;;;;;99.00;41.33;;;4.20;99.90;;;;;;4997412;28;20355;-80
2022/11/30 05:39:32;;;;;;;102.97;43.83;;;4.20;99.90;;;;;;5018438;28;20229;-79
2022/11/30 05:41:59;;;;;;;109.30;42.60;;;4.30;99.90;;;;;;5019768;28;20225;-79
2022/11/30 05:44:25;;;;;;;99.97;41.67;;;4.20;99.90;;;;;;5022305;28;20732;-80
2022/11/30 05:46:53;;;;;;;102.73;42.47;;;4.20;99.90;;;;;;5024443;28;20236;-80
2022/11/30 05:49:19;;;;;;;105.03;43.13;;;4.20;99.90;;;;;;5025786;28;20229;-81
2022/11/30 05:51:46;;;;;;;102.47;42.37;;;4.20;99.90;;;;;;5043952;28;20784;-80
2022/11/30 05:54:15;;;;;;;103.17;42.50;;;4.30;99.90;;;;;;5019981;28;20409;-81
2022/11/30 05:56:43;;;;;;;117.13;42.97;;;4.20;99.90;;;;;;5013221;28;20233;-80
2022/11/30 05:59:10;;;;;;;105.63;43.20;;;4.20;99.90;;;;;;5010660;28;20314;-80
2022/11/30 06:01:37;;;;;;;145.83;42.27;;;4.20;99.90;;;;;;5012062;28;20254;-80
2022/11/30 06:04:04;;;;;;;107.03;42.70;;;4.20;99.90;;;;;;5008732;28;20252;-79
2022/11/30 06:06:31;;;;;;;101.20;40.70;;;4.20;99.90;;;;;;4995492;28;20242;-77
2022/11/30 06:08:58;;;;;;;105.33;41.10;;;4.10;99.90;;;;;;5002301;28;20217;-77
2022/11/30 06:11:25;;;;;;;106.60;42.27;;;4.20;99.90;;;;;;4998698;28;20770;-77
2022/11/30 06:13:53;;;;;;;97.63;40.13;;;4.10;99.90;;;;;;4999708;28;20318;-78
2022/11/30 06:16:19;;;;;;;96.73;39.43;;;4.20;99.90;;;;;;4993808;28;20232;-77
2022/11/30 06:18:46;;;;;;;103.87;41.40;;;4.20;99.90;;;;;;5000678;28;20725;-78
2022/11/30 06:21:13;;;;;;;98.83;41.60;;;4.20;99.90;;;;;;4996648;28;20325;-78
2022/11/30 06:23:40;;;;;;;95.47;41.00;;;4.20;99.90;;;;;;4994275;28;20285;-78
2022/11/30 06:26:09;;;;;;;102.37;39.47;;;4.20;99.90;;;;;;5003199;28;20221;-77
2022/11/30 06:28:37;;;;;;;105.67;41.80;;;4.20;99.90;;;;;;4995431;28;20233;-77
2022/11/30 06:31:07;;;;;;;94.03;39.83;;;4.20;99.90;;;;;;5003296;28;20229;-77
2022/11/30 06:33:34;;;;;;;92.90;39.53;;;4.20;99.90;;;;;;4997023;28;20309;-77
2022/11/30 06:36:01;;;;;;;100.03;41.77;;;4.20;99.90;;;;;;4996700;28;20235;-77
2022/11/30 06:38:28;;;;;;;96.73;40.57;;;4.20;99.90;;;;;;5001223;28;20235;-77
2022/11/30 06:40:56;;;;;;;95.57;38.93;;;4.20;99.90;;;;;;4998719;28;20616;-78
2022/11/30 06:43:23;;;;;;;91.43;37.93;;;4.20;99.90;;;;;;5003538;28;20227;-77
2022/11/30 06:45:49;;;;;;;87.40;38.23;;;4.20;99.90;;;;;;4995939;28;20235;-77
2022/11/30 06:48:17;;;;;;;84.77;35.93;;;4.20;99.90;;;;;;4999079;28;20776;-79
2022/11/30 06:50:44;;;;;;;86.03;37.37;;;4.20;99.90;;;;;;5003174;28;20230;-79
2022/11/30 06:53:11;;;;;;;84.83;35.53;;;4.20;99.90;;;;;;5002626;28;20573;-80
2022/11/30 06:55:37;;;;;;;79.87;36.57;;;4.30;99.90;;;;;;4994909;28;20234;-79
2022/11/30 06:58:06;;;;;;;80.43;36.87;;;4.30;99.90;;;;;;4992071;28;20594;-79
2022/11/30 07:00:33;;;;;;;76.47;36.00;;;4.30;99.90;;;;;;5008346;28;20231;-79
2022/11/30 07:02:59;;;;;;;79.97;34.23;;;4.30;99.90;;;;;;4999859;28;20206;-79
2022/11/30 07:05:28;;;;;;;72.00;34.23;;;4.30;99.90;;;;;;5009758;28;20462;-79
2022/11/30 07:07:55;;;;;;;79.07;36.20;;;4.30;99.90;;;;;;5002329;28;20642;-79
2022/11/30 07:10:22;;;;;;;71.07;34.03;;;4.30;99.90;;;;;;4998396;28;20312;-79
2022/11/30 07:12:49;;;;;;;74.10;35.03;;;4.30;99.90;;;;;;5025723;28;20228;-79
2022/11/30 07:15:16;;;;;;;75.50;35.23;;;4.30;99.90;;;;;;5008719;28;20224;-79
2022/11/30 07:17:42;;;;;;;69.60;34.40;;;4.30;99.90;;;;;;5002533;28;20229;-79
2022/11/30 07:20:09;;;;;;;70.83;34.90;;;4.30;99.90;;;;;;5005751;28;20310;-79
2022/11/30 07:22:37;;;;;;;73.77;35.50;;;4.30;99.90;;;;;;4994311;28;20222;-80
2022/11/30 07:27:49;;;;;;;73.93;34.23;;;4.30;99.90;;;;;;5006661;28;20619;-79
2022/11/30 07:30:16;;;;;;;71.27;34.30;;;4.30;99.90;;;;;;5007883;28;20222;-79
2022/11/30 07:32:42;;;;;;;69.13;33.47;;;4.30;99.90;;;;;;5003769;28;20230;-79
2022/11/30 07:35:09;;;;;;;65.13;34.13;;;4.30;99.90;;;;;;5012592;28;20222;-80
2022/11/30 07:37:37;;;;;;;68.73;33.73;;;4.30;99.90;;;;;;4999808;28;20222;-79
2022/11/30 07:40:04;;;;;;;69.83;33.80;;;4.20;99.90;;;;;;5003277;28;20225;-79
2022/11/30 07:42:31;;;;;;;66.70;32.77;;;4.20;99.90;;;;;;5011642;28;20225;-79
2022/11/30 07:44:58;;;;;;;64.83;33.23;;;4.20;99.90;;;;;;5005815;28;20406;-79
2022/11/30 07:47:25;;;;;;;72.27;34.07;;;4.20;99.90;;;;;;4989840;28;20234;-78
2022/11/30 07:49:51;;;;;;;61.87;31.63;;;4.20;99.90;;;;;;5000921;28;20233;-78
2022/11/30 07:52:18;;;;;;;67.47;33.30;;;4.30;99.90;;;;;;4994881;28;20224;-78
2022/11/30 07:54:46;;;;;;;62.40;32.70;;;4.20;99.90;;;;;;4999456;28;20806;-78
2022/11/30 07:57:13;;;;;;;63.43;31.37;;;4.20;99.90;;;;;;5005982;28;20238;-78
2022/11/30 07:59:39;;;;;;;61.27;32.43;;;4.20;99.90;;;;;;5016219;28;20251;-78
2022/11/30 08:02:06;;;;;;;62.63;30.97;;;4.20;99.90;;;;;;4998530;28;20586;-78
2022/11/30 08:04:33;;;;;;;69.90;33.70;;;4.30;99.90;;;;;;5000456;28;20229;-78
2022/11/30 08:07:01;;;;;;;67.23;33.47;;;4.30;99.90;;;;;;4996839;28;20222;-78
2022/11/30 08:09:28;;;;;;;60.93;31.20;;;4.30;99.90;;;;;;5015164;28;20763;-78
2022/11/30 08:11:56;;;;;;;62.33;32.73;;;4.30;99.90;;;;;;5022418;28;20510;-78
2022/11/30 08:14:23;;;;;;;59.67;29.00;;;4.30;99.90;;;;;;5020945;28;20229;-78
2022/11/30 08:16:50;;;;;;;59.23;30.63;;;4.30;99.90;;;;;;5022106;28;20229;-79
2022/11/30 08:19:17;;;;;;;56.20;29.93;;;4.40;99.90;;;;;;5022311;28;20260;-78
2022/11/30 08:21:43;;;;;;;56.03;28.83;;;4.40;99.90;;;;;;5019487;28;20231;-78
2022/11/30 08:24:13;;;;;;;50.40;28.10;;;4.40;99.90;;;;;;5017929;28;20234;-78
2022/11/30 08:26:40;;;;;;;53.00;28.53;;;4.40;99.90;;;;;;5043811;28;20384;-78
2022/11/30 08:29:10;;;;;;;48.87;26.33;;;4.40;99.90;;;;;;5022603;28;20222;-78
2022/11/30 08:31:37;;;;;;;50.93;26.40;;;4.40;99.90;;;;;;5023356;28;20221;-78
2022/11/30 08:34:06;;;;;;;50.33;28.00;;;4.40;99.90;;;;;;5016112;28;20230;-78
2022/11/30 08:36:33;;;;;;;47.57;26.20;;;4.40;99.90;;;;;;5050512;28;20244;-78
2022/11/30 08:39:01;;;;;;;52.13;28.30;;;4.40;99.90;;;;;;5019905;28;20218;-78
2022/11/30 08:41:28;;;;;;;46.53;26.77;;;4.40;99.90;;;;;;5022534;28;20222;-78
2022/11/30 08:43:55;;;;;;;51.20;26.83;;;4.40;99.90;;;;;;5020328;28;20221;-78
2022/11/30 08:46:24;;;;;;;42.20;24.83;;;4.40;99.90;;;;;;5006737;28;20229;-78
2022/11/30 08:48:54;;;;;;;52.60;26.23;;;4.50;99.90;;;;;;5019250;28;20230;-78
2022/11/30 08:51:21;;;;;;;44.63;25.77;;;4.50;99.90;;;;;;5024058;28;20241;-78
2022/11/30 08:53:49;;;;;;;43.80;25.70;;;4.50;99.90;;;;;;5022400;28;20417;-78
2022/11/30 08:56:18;;;;;;;40.63;24.03;;;4.60;99.90;;;;;;5021179;28;20245;-79
2022/11/30 08:58:45;;;;;;;48.60;27.47;;;4.50;99.90;;;;;;5023940;28;20257;-78
2022/11/30 09:01:14;;;;;;;46.23;26.03;;;4.60;99.90;;;;;;5026905;28;20232;-78
2022/11/30 09:03:43;;;;;;;42.17;25.13;;;4.60;99.90;;;;;;5028503;28;20234;-78
2022/11/30 09:06:12;;;;;;;46.87;25.23;;;4.60;99.90;;;;;;5006769;28;20746;-78
2022/11/30 09:08:40;;;;;;;43.80;26.03;;;4.60;99.90;;;;;;5048276;28;20229;-78
2022/11/30 09:11:11;;;;;;;44.07;24.57;;;4.60;99.90;;;;;;5020263;28;20221;-78
2022/11/30 09:13:38;;;;;;;43.73;26.10;;;4.60;99.90;;;;;;5024331;28;20229;-78
2022/11/30 09:16:06;;;;;;;42.93;26.17;;;4.60;99.90;;;;;;5025653;28;20598;-78
2022/11/30 09:18:32;;;;;;;45.10;26.80;;;4.70;99.90;;;;;;5026787;28;20749;-78
2022/11/30 09:21:01;;;;;;;46.27;24.73;;;4.70;99.90;;;;;;5029049;28;20221;-78
2022/11/30 09:23:29;;;;;;;41.33;24.60;;;4.70;99.90;;;;;;5023887;28;20221;-78
2022/11/30 09:25:57;;;;;;;41.17;23.90;;;4.70;99.90;;;;;;5026737;28;20242;-78
2022/11/30 09:28:24;;;;;;;41.07;24.00;;;4.70;99.90;;;;;;5022186;28;20229;-78
2022/11/30 09:30:51;;;;;;;38.17;23.30;;;4.70;99.90;;;;;;5014236;28;20317;-78
2022/11/30 09:33:18;;;;;;;38.37;22.50;;;4.70;99.90;;;;;;5024179;28;20253;-78
2022/11/30 09:35:45;;;;;;;37.03;22.17;;;4.80;99.90;;;;;;5030211;28;20313;-78
2022/11/30 09:38:13;;;;;;;36.03;21.70;;;4.70;99.90;;;;;;5020131;28;20651;-78
2022/11/30 09:40:41;;;;;;;39.00;23.70;;;4.70;99.90;;;;;;5031829;28;20228;-78
2022/11/30 09:43:23;;;;;;;36.33;23.23;;;4.70;99.90;;;;;;5025788;28;20229;-78
2022/11/30 09:45:56;;;;;;;40.03;24.87;;;4.70;99.90;;;;;;5027079;28;20757;-78
2022/11/30 09:51:26;;;;;;;42.83;25.20;;;4.70;99.90;;;;;;5025792;28;20226;-78
2022/11/30 09:53:58;;;;;;;42.23;25.13;;;4.70;99.90;;;;;;5013720;28;20236;-78
2022/11/30 09:56:34;;;;;;;36.70;23.57;;;4.70;99.90;;;;;;5023080;28;20226;-78
2022/11/30 09:59:05;;;;;;;40.30;24.47;;;4.70;99.90;;;;;;5029276;28;20715;-78
2022/11/30 10:01:33;;;;;;;33.43;22.10;;;4.60;99.90;;;;;;5022277;28;20653;-78
2022/11/30 10:04:00;;;;;;;38.87;23.13;;;4.70;99.90;;;;;;5020166;28;20627;-78
2022/11/30 10:06:34;;;;;;;38.13;23.30;;;4.60;99.90;;;;;;5019572;28;20230;-78
2022/11/30 10:09:27;;;;;;;39.43;24.43;;;4.60;99.90;;;;;;5033217;28;20223;-78
2022/11/30 10:12:01;;;;;;;40.43;24.10;;;4.70;99.90;;;;;;5037196;28;20319;-78
2022/11/30 10:14:45;;;;;;;39.00;23.23;;;4.70;99.90;;;;;;5031048;28;20235;-78
2022/11/30 10:17:24;;;;;;;37.63;22.90;;;4.70;99.90;;;;;;5017497;28;20317;-78
2022/11/30 10:20:05;;;;;;;38.37;22.80;;;4.70;99.90;;;;;;5030400;28;20251;-78
2022/11/30 10:22:47;;;;;;;38.60;23.13;;;4.70;99.90;;;;;;5025281;28;20233;-78
2022/11/30 10:25:22;;;;;;;36.20;22.43;;;4.70;99.90;;;;;;5023916;28;20231;-78
2022/11/30 10:27:51;;;;;;;38.77;22.93;;;4.70;99.90;;;;;;5029112;28;20229;-78
2022/11/30 10:30:22;;;;;;;38.50;23.37;;;4.70;99.90;;;;;;5040655;28;20212;-78
2022/11/30 10:32:52;;;;;;;40.37;23.07;;;4.70;99.90;;;;;;5019048;28;20261;-78
2022/11/30 10:35:27;;;;;;;36.57;23.60;;;4.70;99.90;;;;;;5022714;28;20277;-78
2022/11/30 10:37:56;;;;;;;46.30;25.13;;;4.70;99.90;;;;;;5022471;28;20225;-78
2022/11/30 10:40:34;;;;;;;38.23;22.53;;;4.70;99.90;;;;;;5028297;28;20561;-78
2022/11/30 10:43:11;;;;;;;39.90;24.33;;;4.70;99.90;;;;;;5015937;28;20248;-78
2022/11/30 10:45:44;;;;;;;40.87;23.43;;;4.70;99.90;;;;;;5031837;28;20225;-78
2022/11/30 10:48:17;;;;;;;38.67;23.77;;;4.70;99.90;;;;;;5017121;28;20225;-78
2022/11/30 10:50:44;;;;;;;41.00;24.60;;;4.70;99.90;;;;;;5021982;28;20228;-78
2022/11/30 10:53:12;;;;;;;40.20;23.97;;;4.70;99.90;;;;;;5024583;28;20529;-78
2022/11/30 10:55:43;;;;;;;34.23;20.87;;;4.70;99.90;;;;;;5023151;28;20230;-78
2022/11/30 10:58:17;;;;;;;40.80;23.10;;;4.70;99.90;;;;;;5022793;28;20649;-78
2022/11/30 11:00:50;;;;;;;39.97;23.77;;;4.70;99.90;;;;;;5025087;28;20230;-78
2022/11/30 11:03:27;;;;;;;43.27;23.43;;;4.70;99.90;;;;;;5023066;28;20253;-78
2022/11/30 11:06:15;;;;;;;36.17;22.90;;;4.70;99.90;;;;;;5023423;28;20257;-78
2022/11/30 11:08:44;;;;;;;37.93;23.40;;;4.70;99.90;;;;;;5019078;28;20230;-78
2022/11/30 11:11:33;;;;;;;40.13;24.13;;;4.80;99.90;;;;;;5019717;28;20458;-78
2022/11/30 11:14:15;;;;;;;36.60;22.87;;;4.80;99.90;;;;;;5014164;28;20240;-78
2022/11/30 11:16:54;;;;;;;36.20;21.83;;;4.80;99.90;;;;;;5015011;28;20352;-78
2022/11/30 11:19:25;;;;;;;39.30;23.20;;;4.80;99.90;;;;;;5019021;28;20244;-78
2022/11/30 11:21:52;;;;;;;38.10;23.57;;;4.90;99.90;;;;;;5014190;28;20244;-78
2022/11/30 11:24:19;;;;;;;40.77;23.67;;;4.90;99.90;;;;;;5020186;28;20593;-78
2022/11/30 11:26:51;;;;;;;44.70;25.30;;;4.80;99.90;;;;;;5018562;28;20232;-78
2022/11/30 11:29:30;;;;;;;44.20;26.60;;;4.80;99.90;;;;;;5025339;28;20222;-78
2022/11/30 11:32:17;;;;;;;45.00;25.57;;;4.80;99.90;;;;;;5020071;28;20221;-78
2022/11/30 11:34:44;;;;;;;45.27;25.77;;;4.80;99.90;;;;;;5035775;28;20226;-78
2022/11/30 11:37:18;;;;;;;42.87;26.30;;;4.90;99.90;;;;;;5017640;28;20232;-78
2022/11/30 11:39:56;;;;;;;46.90;25.93;;;4.90;99.90;;;;;;5020470;28;20265;-78
2022/11/30 11:42:25;;;;;;;40.70;24.73;;;4.90;99.90;;;;;;5011941;28;20296;-78
2022/11/30 11:44:54;;;;;;;43.17;25.80;;;4.90;99.90;;;;;;5024774;28;20259;-78
2022/11/30 11:47:26;;;;;;;43.03;24.20;;;4.90;99.90;;;;;;5018296;28;20228;-79
2022/11/30 11:50:22;;;;;;;42.17;24.73;;;4.90;99.90;;;;;;5022895;28;20817;-78
2022/11/30 11:52:50;;;;;;;44.73;25.33;;;4.90;99.90;;;;;;5011092;28;20492;-78
2022/11/30 11:55:19;;;;;;;48.90;25.70;;;4.80;99.90;;;;;;4989674;28;20223;-78
2022/11/30 11:57:53;;;;;;;42.77;26.23;;;4.80;99.90;;;;;;4996847;28;20319;-78
2022/11/30 12:00:22;;;;;;;46.13;25.70;;;4.80;99.90;;;;;;5003405;28;20233;-78
2022/11/30 12:02:56;;;;;;;44.43;25.50;;;4.70;99.90;;;;;;5004786;28;20611;-78
2022/11/30 12:05:27;;;;;;;48.07;26.20;;;4.70;99.90;;;;;;4998421;28;20223;-78
2022/11/30 12:08:05;;;;;;;55.33;28.87;;;4.70;99.90;;;;;;5008139;28;20663;-78
2022/11/30 12:10:36;;;;;;;52.20;27.60;;;4.70;99.90;;;;;;5000503;28;20226;-78
2022/11/30 12:13:12;;;;;;;54.10;27.83;;;4.60;99.90;;;;;;4997644;28;20226;-78
2022/11/30 12:15:51;;;;;;;50.47;28.23;;;4.70;99.90;;;;;;5017584;28;20525;-77
2022/11/30 12:18:20;;;;;;;54.07;28.70;;;4.60;99.90;;;;;;5025924;28;20228;-78
2022/11/30 12:20:54;;;;;;;53.20;27.33;;;4.50;99.90;;;;;;5021515;28;20226;-78
2022/11/30 12:23:38;;;;;;;53.90;28.63;;;4.50;99.90;;;;;;5015307;28;20222;-78
2022/11/30 12:26:15;;;;;;;53.60;29.57;;;4.50;99.90;;;;;;5012120;28;20975;-78
2022/11/30 12:29:08;;;;;;;51.23;27.87;;;4.50;99.90;;;;;;5021816;28;20244;-78
2022/11/30 12:31:43;;;;;;;52.27;28.43;;;4.60;99.90;;;;;;5022201;28;20587;-78
2022/11/30 12:34:18;;;;;;;55.63;30.00;;;4.60;99.90;;;;;;5032774;28;20309;-78
2022/11/30 12:36:57;;;;;;;56.57;28.67;;;4.60;99.90;;;;;;5026557;28;20228;-78
2022/11/30 12:39:32;;;;;;;53.97;28.33;;;4.60;99.90;;;;;;5020377;28;20229;-78
2022/11/30 12:42:06;;;;;;;61.67;30.30;;;4.70;99.90;;;;;;5034545;28;20216;-78
2022/11/30 12:44:50;;;;;;;59.47;31.43;;;4.70;99.90;;;;;;5026166;28;20228;-78
2022/11/30 12:47:43;;;;;;;59.50;30.77;;;4.70;99.90;;;;;;5042845;28;20218;-78
2022/11/30 12:50:28;;;;;;;63.60;31.50;;;4.70;99.90;;;;;;5016577;28;20304;-78
2022/11/30 12:53:02;;;;;;;57.57;31.33;;;4.70;99.90;;;;;;5026587;28;20854;-78